sensor_id;sensor_type;location;lat;lon;timestamp;P1;durP1;ratioP1;P2;durP2;ratioP2
20865;SDS011;10593;48.398;10.698;2023-06-22T00:00:56;3.27;;;2.97;;
20865;SDS011;10593;48.398;10.698;2023-06-22T00:03:24;5.03;;;3.50;;
20865;SDS011;10593;48.398;10.698;2023-06-22T00:05:50;5.70;;;3.27;;
20865;SDS011;10593;48.398;10.698;2023-06-22T00:08:17;4.30;;;3.30;;
20865;SDS011;10593;48.398;10.698;2023-06-22T00:10:44;3.43;;;2.90;;
20865;SDS011;10593;48.398;10.698;2023-06-22T00:13:11;5.70;;;3.50;;
20865;SDS011;10593;48.398;10.698;2023-06-22T00:15:39;3.90;;;3.03;;
20865;SDS011;10593;48.398;10.698;2023-06-22T00:18:07;4.57;;;3.03;;
20865;SDS011;10593;48.398;10.698;2023-06-22T00:20:33;5.00;;;3.33;;
20865;SDS011;10593;48.398;10.698;2023-06-22T00:23:02;5.27;;;3.10;;
20865;SDS011;10593;48.398;10.698;2023-06-22T00:25:36;4.37;;;3.20;;
20865;SDS011;10593;48.398;10.698;2023-06-22T00:28:06;3.00;;;2.70;;
20865;SDS011;10593;48.398;10.698;2023-06-22T00:30:33;4.03;;;3.40;;
20865;SDS011;10593;48.398;10.698;2023-06-22T00:33:00;4.13;;;3.33;;
20865;SDS011;10593;48.398;10.698;2023-06-22T00:35:27;5.47;;;3.10;;
20865;SDS011;10593;48.398;10.698;2023-06-22T00:37:54;4.03;;;3.27;;
20865;SDS011;10593;48.398;10.698;2023-06-22T00:40:29;3.27;;;2.97;;
20865;SDS011;10593;48.398;10.698;2023-06-22T00:42:57;4.50;;;3.63;;
20865;SDS011;10593;48.398;10.698;2023-06-22T00:45:23;4.33;;;3.93;;
20865;SDS011;10593;48.398;10.698;2023-06-22T00:47:51;4.50;;;3.17;;
20865;SDS011;10593;48.398;10.698;2023-06-22T00:50:23;5.10;;;3.67;;
20865;SDS011;10593;48.398;10.698;2023-06-22T00:52:52;6.40;;;3.30;;
20865;SDS011;10593;48.398;10.698;2023-06-22T00:55:23;4.57;;;3.50;;
20865;SDS011;10593;48.398;10.698;2023-06-22T00:57:51;4.47;;;3.30;;
20865;SDS011;10593;48.398;10.698;2023-06-22T01:00:20;3.40;;;3.10;;
20865;SDS011;10593;48.398;10.698;2023-06-22T01:02:50;3.93;;;3.37;;
20865;SDS011;10593;48.398;10.698;2023-06-22T01:05:18;3.73;;;2.87;;
20865;SDS011;10593;48.398;10.698;2023-06-22T01:10:44;3.73;;;3.00;;
20865;SDS011;10593;48.398;10.698;2023-06-22T01:16:35;4.73;;;3.60;;
20865;SDS011;10593;48.398;10.698;2023-06-22T01:19:51;4.87;;;3.17;;
20865;SDS011;10593;48.398;10.698;2023-06-22T01:22:20;4.03;;;3.10;;
20865;SDS011;10593;48.398;10.698;2023-06-22T01:25:06;3.87;;;3.23;;
20865;SDS011;10593;48.398;10.698;2023-06-22T01:27:53;3.63;;;3.33;;
20865;SDS011;10593;48.398;10.698;2023-06-22T01:30:30;3.23;;;3.03;;
20865;SDS011;10593;48.398;10.698;2023-06-22T01:32:59;3.20;;;2.90;;
20865;SDS011;10593;48.398;10.698;2023-06-22T01:35:29;3.90;;;3.43;;
20865;SDS011;10593;48.398;10.698;2023-06-22T01:37:56;3.33;;;3.00;;
20865;SDS011;10593;48.398;10.698;2023-06-22T01:40:23;4.27;;;3.43;;
20865;SDS011;10593;48.398;10.698;2023-06-22T01:42:50;4.40;;;3.67;;
20865;SDS011;10593;48.398;10.698;2023-06-22T01:45:16;5.30;;;3.60;;
20865;SDS011;10593;48.398;10.698;2023-06-22T01:47:43;4.00;;;3.40;;
20865;SDS011;10593;48.398;10.698;2023-06-22T01:50:09;4.00;;;3.30;;
20865;SDS011;10593;48.398;10.698;2023-06-22T01:52:36;4.73;;;3.10;;
20865;SDS011;10593;48.398;10.698;2023-06-22T01:55:02;3.90;;;3.10;;
20865;SDS011;10593;48.398;10.698;2023-06-22T01:57:29;3.60;;;3.17;;
20865;SDS011;10593;48.398;10.698;2023-06-22T02:00:00;3.47;;;3.17;;
20865;SDS011;10593;48.398;10.698;2023-06-22T02:02:39;4.50;;;3.47;;
20865;SDS011;10593;48.398;10.698;2023-06-22T02:05:34;4.93;;;3.50;;
20865;SDS011;10593;48.398;10.698;2023-06-22T02:08:11;5.90;;;3.40;;
20865;SDS011;10593;48.398;10.698;2023-06-22T02:10:45;4.83;;;3.50;;
20865;SDS011;10593;48.398;10.698;2023-06-22T02:13:14;3.80;;;3.33;;
20865;SDS011;10593;48.398;10.698;2023-06-22T02:15:41;5.73;;;3.23;;
20865;SDS011;10593;48.398;10.698;2023-06-22T02:18:07;4.07;;;3.33;;
20865;SDS011;10593;48.398;10.698;2023-06-22T02:20:35;3.80;;;3.33;;
20865;SDS011;10593;48.398;10.698;2023-06-22T02:23:02;3.57;;;3.27;;
20865;SDS011;10593;48.398;10.698;2023-06-22T02:25:28;5.30;;;3.40;;
20865;SDS011;10593;48.398;10.698;2023-06-22T02:27:53;4.10;;;3.63;;
20865;SDS011;10593;48.398;10.698;2023-06-22T02:30:19;5.27;;;3.43;;
20865;SDS011;10593;48.398;10.698;2023-06-22T02:32:45;4.33;;;3.13;;
20865;SDS011;10593;48.398;10.698;2023-06-22T02:35:10;6.43;;;3.53;;
20865;SDS011;10593;48.398;10.698;2023-06-22T02:37:36;4.60;;;3.83;;
20865;SDS011;10593;48.398;10.698;2023-06-22T02:40:06;5.07;;;3.60;;
20865;SDS011;10593;48.398;10.698;2023-06-22T02:42:36;5.50;;;4.10;;
20865;SDS011;10593;48.398;10.698;2023-06-22T02:45:04;4.00;;;3.53;;
20865;SDS011;10593;48.398;10.698;2023-06-22T02:47:30;5.27;;;3.97;;
20865;SDS011;10593;48.398;10.698;2023-06-22T02:49:56;4.83;;;3.50;;
20865;SDS011;10593;48.398;10.698;2023-06-22T02:52:22;5.57;;;4.00;;
20865;SDS011;10593;48.398;10.698;2023-06-22T02:54:47;5.73;;;3.43;;
20865;SDS011;10593;48.398;10.698;2023-06-22T02:57:13;4.67;;;3.30;;
20865;SDS011;10593;48.398;10.698;2023-06-22T02:59:42;4.30;;;3.23;;
20865;SDS011;10593;48.398;10.698;2023-06-22T03:02:08;4.03;;;3.63;;
20865;SDS011;10593;48.398;10.698;2023-06-22T03:04:35;5.17;;;3.60;;
20865;SDS011;10593;48.398;10.698;2023-06-22T03:07:01;5.37;;;3.73;;
20865;SDS011;10593;48.398;10.698;2023-06-22T03:09:27;4.90;;;3.73;;
20865;SDS011;10593;48.398;10.698;2023-06-22T03:11:54;4.13;;;3.57;;
20865;SDS011;10593;48.398;10.698;2023-06-22T03:14:20;4.23;;;3.87;;
20865;SDS011;10593;48.398;10.698;2023-06-22T03:16:46;3.93;;;3.40;;
20865;SDS011;10593;48.398;10.698;2023-06-22T03:19:11;5.33;;;3.53;;
20865;SDS011;10593;48.398;10.698;2023-06-22T03:21:38;4.07;;;3.47;;
20865;SDS011;10593;48.398;10.698;2023-06-22T03:24:05;5.53;;;3.80;;
20865;SDS011;10593;48.398;10.698;2023-06-22T03:26:31;4.73;;;4.27;;
20865;SDS011;10593;48.398;10.698;2023-06-22T03:28:57;4.33;;;3.80;;
20865;SDS011;10593;48.398;10.698;2023-06-22T03:31:23;5.67;;;3.97;;
20865;SDS011;10593;48.398;10.698;2023-06-22T03:33:50;3.87;;;3.57;;
20865;SDS011;10593;48.398;10.698;2023-06-22T03:36:16;4.33;;;3.83;;
20865;SDS011;10593;48.398;10.698;2023-06-22T03:38:48;4.87;;;4.00;;
20865;SDS011;10593;48.398;10.698;2023-06-22T03:41:15;5.30;;;3.73;;
20865;SDS011;10593;48.398;10.698;2023-06-22T03:43:41;5.70;;;3.97;;
20865;SDS011;10593;48.398;10.698;2023-06-22T03:46:07;4.53;;;3.97;;
20865;SDS011;10593;48.398;10.698;2023-06-22T03:48:32;4.13;;;3.73;;
20865;SDS011;10593;48.398;10.698;2023-06-22T03:50:59;4.60;;;4.00;;
20865;SDS011;10593;48.398;10.698;2023-06-22T03:53:26;6.00;;;3.87;;
20865;SDS011;10593;48.398;10.698;2023-06-22T03:55:52;6.70;;;3.93;;
20865;SDS011;10593;48.398;10.698;2023-06-22T03:58:18;5.90;;;3.77;;
20865;SDS011;10593;48.398;10.698;2023-06-22T04:00:45;4.50;;;3.90;;
20865;SDS011;10593;48.398;10.698;2023-06-22T04:03:15;5.13;;;4.17;;
20865;SDS011;10593;48.398;10.698;2023-06-22T04:05:43;5.10;;;4.60;;
20865;SDS011;10593;48.398;10.698;2023-06-22T04:08:10;3.93;;;3.33;;
20865;SDS011;10593;48.398;10.698;2023-06-22T04:10:36;4.40;;;3.87;;
20865;SDS011;10593;48.398;10.698;2023-06-22T04:13:02;5.17;;;3.90;;
20865;SDS011;10593;48.398;10.698;2023-06-22T04:15:28;4.40;;;3.67;;
20865;SDS011;10593;48.398;10.698;2023-06-22T04:17:54;4.00;;;3.70;;
20865;SDS011;10593;48.398;10.698;2023-06-22T04:20:21;4.37;;;3.40;;
20865;SDS011;10593;48.398;10.698;2023-06-22T04:22:47;4.90;;;4.03;;
20865;SDS011;10593;48.398;10.698;2023-06-22T04:25:13;4.10;;;3.70;;
20865;SDS011;10593;48.398;10.698;2023-06-22T04:27:39;4.70;;;3.43;;
20865;SDS011;10593;48.398;10.698;2023-06-22T04:30:08;5.10;;;4.00;;
20865;SDS011;10593;48.398;10.698;2023-06-22T04:32:34;3.87;;;3.50;;
20865;SDS011;10593;48.398;10.698;2023-06-22T04:35:04;4.73;;;3.53;;
20865;SDS011;10593;48.398;10.698;2023-06-22T04:37:31;3.60;;;3.30;;
20865;SDS011;10593;48.398;10.698;2023-06-22T04:39:58;3.60;;;3.37;;
20865;SDS011;10593;48.398;10.698;2023-06-22T04:42:27;4.13;;;3.73;;
20865;SDS011;10593;48.398;10.698;2023-06-22T04:44:53;3.93;;;3.43;;
20865;SDS011;10593;48.398;10.698;2023-06-22T04:47:19;5.63;;;3.73;;
20865;SDS011;10593;48.398;10.698;2023-06-22T04:49:45;3.60;;;3.27;;
20865;SDS011;10593;48.398;10.698;2023-06-22T04:52:12;7.57;;;3.97;;
20865;SDS011;10593;48.398;10.698;2023-06-22T04:54:39;5.60;;;3.60;;
20865;SDS011;10593;48.398;10.698;2023-06-22T04:57:12;3.20;;;3.00;;
20865;SDS011;10593;48.398;10.698;2023-06-22T04:59:38;3.27;;;2.97;;
20865;SDS011;10593;48.398;10.698;2023-06-22T05:02:06;4.13;;;3.80;;
20865;SDS011;10593;48.398;10.698;2023-06-22T05:04:33;4.40;;;2.93;;
20865;SDS011;10593;48.398;10.698;2023-06-22T05:07:00;3.70;;;3.10;;
20865;SDS011;10593;48.398;10.698;2023-06-22T05:09:27;4.43;;;3.00;;
20865;SDS011;10593;48.398;10.698;2023-06-22T05:11:54;3.20;;;3.00;;
20865;SDS011;10593;48.398;10.698;2023-06-22T05:14:21;3.43;;;3.07;;
20865;SDS011;10593;48.398;10.698;2023-06-22T05:16:48;3.77;;;3.47;;
20865;SDS011;10593;48.398;10.698;2023-06-22T05:19:16;6.70;;;3.63;;
20865;SDS011;10593;48.398;10.698;2023-06-22T05:21:42;4.93;;;3.20;;
20865;SDS011;10593;48.398;10.698;2023-06-22T05:24:08;3.10;;;2.80;;
20865;SDS011;10593;48.398;10.698;2023-06-22T05:26:34;3.33;;;3.03;;
20865;SDS011;10593;48.398;10.698;2023-06-22T05:29:00;3.53;;;2.93;;
20865;SDS011;10593;48.398;10.698;2023-06-22T05:31:27;4.87;;;3.43;;
20865;SDS011;10593;48.398;10.698;2023-06-22T05:33:53;3.97;;;3.30;;
20865;SDS011;10593;48.398;10.698;2023-06-22T05:36:20;4.47;;;3.10;;
20865;SDS011;10593;48.398;10.698;2023-06-22T05:38:50;4.00;;;3.07;;
20865;SDS011;10593;48.398;10.698;2023-06-22T05:41:17;2.97;;;2.70;;
20865;SDS011;10593;48.398;10.698;2023-06-22T05:43:42;3.40;;;3.10;;
20865;SDS011;10593;48.398;10.698;2023-06-22T05:46:08;2.93;;;2.73;;
20865;SDS011;10593;48.398;10.698;2023-06-22T05:48:34;2.93;;;2.73;;
20865;SDS011;10593;48.398;10.698;2023-06-22T05:50:59;3.13;;;2.60;;
20865;SDS011;10593;48.398;10.698;2023-06-22T05:53:25;3.93;;;2.80;;
20865;SDS011;10593;48.398;10.698;2023-06-22T05:55:51;3.27;;;2.90;;
20865;SDS011;10593;48.398;10.698;2023-06-22T05:58:16;3.23;;;2.87;;
20865;SDS011;10593;48.398;10.698;2023-06-22T06:00:42;3.40;;;3.10;;
20865;SDS011;10593;48.398;10.698;2023-06-22T06:03:08;3.80;;;3.30;;
20865;SDS011;10593;48.398;10.698;2023-06-22T06:05:35;3.67;;;3.37;;
20865;SDS011;10593;48.398;10.698;2023-06-22T06:08:03;4.70;;;3.33;;
20865;SDS011;10593;48.398;10.698;2023-06-22T06:10:31;3.53;;;2.87;;
20865;SDS011;10593;48.398;10.698;2023-06-22T06:12:58;3.27;;;2.97;;
20865;SDS011;10593;48.398;10.698;2023-06-22T06:15:27;3.43;;;3.13;;
20865;SDS011;10593;48.398;10.698;2023-06-22T06:17:53;3.90;;;3.47;;
20865;SDS011;10593;48.398;10.698;2023-06-22T06:20:23;3.80;;;3.43;;
20865;SDS011;10593;48.398;10.698;2023-06-22T06:22:51;4.23;;;3.83;;
20865;SDS011;10593;48.398;10.698;2023-06-22T06:25:17;6.30;;;4.17;;
20865;SDS011;10593;48.398;10.698;2023-06-22T06:27:48;4.30;;;3.90;;
20865;SDS011;10593;48.398;10.698;2023-06-22T06:30:16;3.87;;;3.23;;
20865;SDS011;10593;48.398;10.698;2023-06-22T06:32:44;3.40;;;3.13;;
20865;SDS011;10593;48.398;10.698;2023-06-22T06:35:11;3.60;;;3.27;;
20865;SDS011;10593;48.398;10.698;2023-06-22T06:37:42;6.37;;;3.33;;
20865;SDS011;10593;48.398;10.698;2023-06-22T06:40:12;3.33;;;3.00;;
20865;SDS011;10593;48.398;10.698;2023-06-22T06:42:43;6.57;;;4.00;;
20865;SDS011;10593;48.398;10.698;2023-06-22T06:45:12;9.77;;;3.83;;
20865;SDS011;10593;48.398;10.698;2023-06-22T06:47:42;4.43;;;4.03;;
20865;SDS011;10593;48.398;10.698;2023-06-22T06:50:08;4.63;;;3.47;;
20865;SDS011;10593;48.398;10.698;2023-06-22T06:52:34;4.30;;;3.80;;
20865;SDS011;10593;48.398;10.698;2023-06-22T06:55:00;3.97;;;3.50;;
20865;SDS011;10593;48.398;10.698;2023-06-22T06:57:27;4.83;;;3.80;;
20865;SDS011;10593;48.398;10.698;2023-06-22T06:59:54;3.27;;;2.90;;
20865;SDS011;10593;48.398;10.698;2023-06-22T07:02:23;4.13;;;3.13;;
20865;SDS011;10593;48.398;10.698;2023-06-22T07:04:49;5.47;;;3.07;;
20865;SDS011;10593;48.398;10.698;2023-06-22T07:07:15;5.53;;;3.47;;
20865;SDS011;10593;48.398;10.698;2023-06-22T07:09:41;4.53;;;3.90;;
20865;SDS011;10593;48.398;10.698;2023-06-22T07:12:07;3.87;;;3.47;;
20865;SDS011;10593;48.398;10.698;2023-06-22T07:14:33;4.47;;;3.50;;
20865;SDS011;10593;48.398;10.698;2023-06-22T07:16:58;4.87;;;3.23;;
20865;SDS011;10593;48.398;10.698;2023-06-22T07:19:25;3.87;;;3.57;;
20865;SDS011;10593;48.398;10.698;2023-06-22T07:21:52;4.03;;;3.57;;
20865;SDS011;10593;48.398;10.698;2023-06-22T08:43:51;4.40;;;3.70;;
20865;SDS011;10593;48.398;10.698;2023-06-22T08:46:17;6.87;;;3.77;;
20865;SDS011;10593;48.398;10.698;2023-06-22T08:48:46;7.43;;;4.60;;
20865;SDS011;10593;48.398;10.698;2023-06-22T08:51:12;4.53;;;4.13;;
20865;SDS011;10593;48.398;10.698;2023-06-22T08:53:38;5.00;;;4.43;;
20865;SDS011;10593;48.398;10.698;2023-06-22T08:56:04;5.77;;;4.10;;
20865;SDS011;10593;48.398;10.698;2023-06-22T08:58:30;6.10;;;3.87;;
20865;SDS011;10593;48.398;10.698;2023-06-22T09:00:55;7.13;;;4.00;;
20865;SDS011;10593;48.398;10.698;2023-06-22T09:03:21;5.93;;;4.23;;
20865;SDS011;10593;48.398;10.698;2023-06-22T09:05:51;6.97;;;3.60;;
20865;SDS011;10593;48.398;10.698;2023-06-22T09:08:17;5.03;;;3.80;;
20865;SDS011;10593;48.398;10.698;2023-06-22T09:10:42;4.50;;;3.73;;
20865;SDS011;10593;48.398;10.698;2023-06-22T09:13:08;6.50;;;3.83;;
20865;SDS011;10593;48.398;10.698;2023-06-22T09:15:34;5.47;;;4.20;;
20865;SDS011;10593;48.398;10.698;2023-06-22T09:17:59;4.07;;;3.67;;
20865;SDS011;10593;48.398;10.698;2023-06-22T09:20:25;6.67;;;5.27;;
20865;SDS011;10593;48.398;10.698;2023-06-22T09:22:51;9.57;;;4.70;;
20865;SDS011;10593;48.398;10.698;2023-06-22T09:25:16;7.37;;;4.57;;
20865;SDS011;10593;48.398;10.698;2023-06-22T09:27:45;6.60;;;4.03;;
20865;SDS011;10593;48.398;10.698;2023-06-22T09:30:12;8.00;;;4.47;;
20865;SDS011;10593;48.398;10.698;2023-06-22T09:32:38;3.97;;;3.50;;
20865;SDS011;10593;48.398;10.698;2023-06-22T09:35:04;6.13;;;3.90;;
20865;SDS011;10593;48.398;10.698;2023-06-22T09:37:31;5.33;;;3.33;;
20865;SDS011;10593;48.398;10.698;2023-06-22T09:39:57;5.20;;;3.97;;
20865;SDS011;10593;48.398;10.698;2023-06-22T09:42:22;4.83;;;3.60;;
20865;SDS011;10593;48.398;10.698;2023-06-22T09:44:48;6.10;;;4.03;;
20865;SDS011;10593;48.398;10.698;2023-06-22T09:47:14;5.73;;;3.40;;
20865;SDS011;10593;48.398;10.698;2023-06-22T09:49:39;5.47;;;3.90;;
20865;SDS011;10593;48.398;10.698;2023-06-22T09:52:05;7.63;;;4.00;;
20865;SDS011;10593;48.398;10.698;2023-06-22T09:54:31;5.77;;;3.90;;
20865;SDS011;10593;48.398;10.698;2023-06-22T09:56:57;4.27;;;3.80;;
20865;SDS011;10593;48.398;10.698;2023-06-22T09:59:23;5.40;;;3.87;;
20865;SDS011;10593;48.398;10.698;2023-06-22T10:01:48;5.80;;;4.33;;
20865;SDS011;10593;48.398;10.698;2023-06-22T10:04:14;5.80;;;4.03;;
20865;SDS011;10593;48.398;10.698;2023-06-22T10:06:39;6.27;;;4.07;;
20865;SDS011;10593;48.398;10.698;2023-06-22T10:09:06;5.40;;;4.07;;
20865;SDS011;10593;48.398;10.698;2023-06-22T10:11:33;7.63;;;4.33;;
20865;SDS011;10593;48.398;10.698;2023-06-22T10:14:00;5.90;;;4.00;;
20865;SDS011;10593;48.398;10.698;2023-06-22T10:16:32;7.53;;;3.93;;
20865;SDS011;10593;48.398;10.698;2023-06-22T10:18:58;7.23;;;4.10;;
20865;SDS011;10593;48.398;10.698;2023-06-22T10:21:24;5.40;;;4.13;;
20865;SDS011;10593;48.398;10.698;2023-06-22T10:23:52;4.40;;;3.87;;
20865;SDS011;10593;48.398;10.698;2023-06-22T10:26:17;6.03;;;3.90;;
20865;SDS011;10593;48.398;10.698;2023-06-22T10:28:45;6.00;;;3.63;;
20865;SDS011;10593;48.398;10.698;2023-06-22T10:31:11;5.73;;;4.23;;
20865;SDS011;10593;48.398;10.698;2023-06-22T10:33:37;6.03;;;3.83;;
20865;SDS011;10593;48.398;10.698;2023-06-22T10:36:02;7.37;;;4.13;;
20865;SDS011;10593;48.398;10.698;2023-06-22T10:38:28;5.43;;;4.10;;
20865;SDS011;10593;48.398;10.698;2023-06-22T10:40:54;6.73;;;4.33;;
20865;SDS011;10593;48.398;10.698;2023-06-22T10:43:20;6.13;;;4.30;;
20865;SDS011;10593;48.398;10.698;2023-06-22T10:45:45;8.50;;;4.83;;
20865;SDS011;10593;48.398;10.698;2023-06-22T10:48:11;6.27;;;4.10;;
20865;SDS011;10593;48.398;10.698;2023-06-22T10:50:36;6.20;;;4.13;;
20865;SDS011;10593;48.398;10.698;2023-06-22T10:53:02;5.80;;;4.67;;
20865;SDS011;10593;48.398;10.698;2023-06-22T10:55:28;4.87;;;4.37;;
20865;SDS011;10593;48.398;10.698;2023-06-22T10:57:54;6.40;;;3.90;;
20865;SDS011;10593;48.398;10.698;2023-06-22T11:00:20;7.80;;;4.30;;
20865;SDS011;10593;48.398;10.698;2023-06-22T11:02:46;6.10;;;4.10;;
20865;SDS011;10593;48.398;10.698;2023-06-22T11:05:12;6.70;;;4.40;;
20865;SDS011;10593;48.398;10.698;2023-06-22T11:07:40;5.20;;;3.90;;
20865;SDS011;10593;48.398;10.698;2023-06-22T11:10:08;9.43;;;4.17;;
20865;SDS011;10593;48.398;10.698;2023-06-22T11:12:34;5.37;;;4.13;;
20865;SDS011;10593;48.398;10.698;2023-06-22T11:15:00;6.97;;;3.90;;
20865;SDS011;10593;48.398;10.698;2023-06-22T11:17:26;8.03;;;4.63;;
20865;SDS011;10593;48.398;10.698;2023-06-22T11:19:52;6.57;;;3.80;;
20865;SDS011;10593;48.398;10.698;2023-06-22T11:22:17;7.13;;;4.67;;
20865;SDS011;10593;48.398;10.698;2023-06-22T11:24:43;6.10;;;4.07;;
20865;SDS011;10593;48.398;10.698;2023-06-22T11:27:09;6.00;;;4.40;;
20865;SDS011;10593;48.398;10.698;2023-06-22T11:29:34;5.67;;;4.37;;
20865;SDS011;10593;48.398;10.698;2023-06-22T11:32:00;7.27;;;4.70;;
20865;SDS011;10593;48.398;10.698;2023-06-22T11:34:26;10.77;;;4.40;;
20865;SDS011;10593;48.398;10.698;2023-06-22T11:36:53;7.57;;;4.17;;
20865;SDS011;10593;48.398;10.698;2023-06-22T11:39:18;6.07;;;4.63;;
20865;SDS011;10593;48.398;10.698;2023-06-22T11:41:44;8.80;;;4.13;;
20865;SDS011;10593;48.398;10.698;2023-06-22T11:44:10;5.90;;;4.37;;
20865;SDS011;10593;48.398;10.698;2023-06-22T11:46:36;6.23;;;4.20;;
20865;SDS011;10593;48.398;10.698;2023-06-22T11:49:02;7.27;;;4.27;;
20865;SDS011;10593;48.398;10.698;2023-06-22T11:51:27;9.87;;;5.00;;
20865;SDS011;10593;48.398;10.698;2023-06-22T11:53:56;7.93;;;5.20;;
20865;SDS011;10593;48.398;10.698;2023-06-22T11:56:22;8.00;;;4.23;;
20865;SDS011;10593;48.398;10.698;2023-06-22T11:58:47;6.40;;;4.43;;
20865;SDS011;10593;48.398;10.698;2023-06-22T12:01:13;7.77;;;4.00;;
20865;SDS011;10593;48.398;10.698;2023-06-22T12:03:40;8.83;;;5.57;;
20865;SDS011;10593;48.398;10.698;2023-06-22T12:06:08;6.77;;;4.17;;
20865;SDS011;10593;48.398;10.698;2023-06-22T12:08:34;4.80;;;4.30;;
20865;SDS011;10593;48.398;10.698;2023-06-22T12:10:59;5.67;;;4.23;;
20865;SDS011;10593;48.398;10.698;2023-06-22T12:13:25;5.77;;;4.00;;
20865;SDS011;10593;48.398;10.698;2023-06-22T12:15:51;8.03;;;5.00;;
20865;SDS011;10593;48.398;10.698;2023-06-22T12:18:17;8.35;;;4.30;;
20865;SDS011;10593;48.398;10.698;2023-06-22T12:20:45;9.73;;;4.23;;
20865;SDS011;10593;48.398;10.698;2023-06-22T12:23:11;6.53;;;4.80;;
20865;SDS011;10593;48.398;10.698;2023-06-22T12:25:37;5.67;;;4.70;;
20865;SDS011;10593;48.398;10.698;2023-06-22T12:28:02;5.37;;;3.97;;
20865;SDS011;10593;48.398;10.698;2023-06-22T12:30:29;7.67;;;4.53;;
20865;SDS011;10593;48.398;10.698;2023-06-22T12:32:57;8.73;;;4.30;;
20865;SDS011;10593;48.398;10.698;2023-06-22T12:35:23;7.00;;;4.27;;
20865;SDS011;10593;48.398;10.698;2023-06-22T12:37:49;6.77;;;4.50;;
20865;SDS011;10593;48.398;10.698;2023-06-22T12:40:15;8.77;;;5.13;;
20865;SDS011;10593;48.398;10.698;2023-06-22T12:42:40;6.13;;;4.40;;
20865;SDS011;10593;48.398;10.698;2023-06-22T12:45:07;7.90;;;4.40;;
20865;SDS011;10593;48.398;10.698;2023-06-22T12:47:34;6.67;;;4.53;;
20865;SDS011;10593;48.398;10.698;2023-06-22T12:50:00;7.07;;;4.90;;
20865;SDS011;10593;48.398;10.698;2023-06-22T12:52:26;6.00;;;4.60;;
20865;SDS011;10593;48.398;10.698;2023-06-22T12:54:51;9.97;;;4.70;;
20865;SDS011;10593;48.398;10.698;2023-06-22T12:57:17;8.30;;;4.70;;
20865;SDS011;10593;48.398;10.698;2023-06-22T12:59:44;7.17;;;4.30;;
20865;SDS011;10593;48.398;10.698;2023-06-22T13:02:10;6.30;;;4.43;;
20865;SDS011;10593;48.398;10.698;2023-06-22T13:04:36;5.97;;;3.83;;
20865;SDS011;10593;48.398;10.698;2023-06-22T13:07:01;5.78;;;4.32;;
20865;SDS011;10593;48.398;10.698;2023-06-22T13:09:27;7.15;;;4.13;;
20865;SDS011;10593;48.398;10.698;2023-06-22T13:11:53;8.17;;;3.77;;
20865;SDS011;10593;48.398;10.698;2023-06-22T13:14:19;6.72;;;4.07;;
20865;SDS011;10593;48.398;10.698;2023-06-22T13:16:44;6.17;;;3.87;;
20865;SDS011;10593;48.398;10.698;2023-06-22T13:19:10;7.70;;;3.73;;
20865;SDS011;10593;48.398;10.698;2023-06-22T13:21:35;5.57;;;4.10;;
20865;SDS011;10593;48.398;10.698;2023-06-22T13:24:01;7.55;;;3.88;;
20865;SDS011;10593;48.398;10.698;2023-06-22T13:26:27;7.75;;;4.32;;
20865;SDS011;10593;48.398;10.698;2023-06-22T13:28:53;9.18;;;4.28;;
20865;SDS011;10593;48.398;10.698;2023-06-22T13:31:19;7.15;;;4.20;;
20865;SDS011;10593;48.398;10.698;2023-06-22T13:33:45;11.73;;;4.15;;
20865;SDS011;10593;48.398;10.698;2023-06-22T13:36:13;5.80;;;3.72;;
20865;SDS011;10593;48.398;10.698;2023-06-22T13:38:39;6.13;;;4.07;;
20865;SDS011;10593;48.398;10.698;2023-06-22T13:41:05;6.88;;;4.28;;
20865;SDS011;10593;48.398;10.698;2023-06-22T13:43:31;8.80;;;4.13;;
20865;SDS011;10593;48.398;10.698;2023-06-22T13:45:57;6.40;;;3.88;;
20865;SDS011;10593;48.398;10.698;2023-06-22T13:48:22;6.77;;;4.00;;
20865;SDS011;10593;48.398;10.698;2023-06-22T13:50:50;7.70;;;3.87;;
20865;SDS011;10593;48.398;10.698;2023-06-22T13:53:17;4.35;;;3.70;;
20865;SDS011;10593;48.398;10.698;2023-06-22T13:55:43;11.80;;;4.20;;
20865;SDS011;10593;48.398;10.698;2023-06-22T13:58:08;6.47;;;3.87;;
20865;SDS011;10593;48.398;10.698;2023-06-22T14:00:34;8.52;;;4.10;;
20865;SDS011;10593;48.398;10.698;2023-06-22T14:02:59;7.43;;;4.57;;
20865;SDS011;10593;48.398;10.698;2023-06-22T14:05:25;6.53;;;3.90;;
20865;SDS011;10593;48.398;10.698;2023-06-22T14:07:51;11.05;;;3.78;;
20865;SDS011;10593;48.398;10.698;2023-06-22T14:10:17;6.38;;;4.10;;
20865;SDS011;10593;48.398;10.698;2023-06-22T14:12:43;7.60;;;4.20;;
20865;SDS011;10593;48.398;10.698;2023-06-22T14:15:09;7.30;;;3.90;;
20865;SDS011;10593;48.398;10.698;2023-06-22T14:17:35;13.73;;;5.10;;
20865;SDS011;10593;48.398;10.698;2023-06-22T14:20:01;6.38;;;4.13;;
20865;SDS011;10593;48.398;10.698;2023-06-22T14:22:27;10.13;;;3.95;;
20865;SDS011;10593;48.398;10.698;2023-06-22T14:24:54;6.75;;;4.35;;
20865;SDS011;10593;48.398;10.698;2023-06-22T14:27:22;7.60;;;4.17;;
20865;SDS011;10593;48.398;10.698;2023-06-22T14:29:48;7.80;;;4.43;;
20865;SDS011;10593;48.398;10.698;2023-06-22T14:32:14;9.63;;;4.13;;
20865;SDS011;10593;48.398;10.698;2023-06-22T14:34:39;7.87;;;4.77;;
20865;SDS011;10593;48.398;10.698;2023-06-22T14:37:08;7.77;;;4.23;;
20865;SDS011;10593;48.398;10.698;2023-06-22T14:39:43;6.00;;;4.37;;
20865;SDS011;10593;48.398;10.698;2023-06-22T14:42:08;8.50;;;4.53;;
20865;SDS011;10593;48.398;10.698;2023-06-22T14:44:34;6.03;;;4.18;;
20865;SDS011;10593;48.398;10.698;2023-06-22T14:47:00;6.55;;;4.13;;
20865;SDS011;10593;48.398;10.698;2023-06-22T14:49:26;10.50;;;5.00;;
20865;SDS011;10593;48.398;10.698;2023-06-22T14:51:52;6.85;;;4.75;;
20865;SDS011;10593;48.398;10.698;2023-06-22T14:54:18;6.03;;;4.68;;
20865;SDS011;10593;48.398;10.698;2023-06-22T14:56:43;6.55;;;4.38;;
20865;SDS011;10593;48.398;10.698;2023-06-22T14:59:09;6.70;;;4.13;;
20865;SDS011;10593;48.398;10.698;2023-06-22T15:01:35;8.90;;;5.32;;
20865;SDS011;10593;48.398;10.698;2023-06-22T15:04:01;6.33;;;4.70;;
20865;SDS011;10593;48.398;10.698;2023-06-22T15:06:27;10.35;;;5.13;;
20865;SDS011;10593;48.398;10.698;2023-06-22T15:08:53;7.28;;;5.25;;
20865;SDS011;10593;48.398;10.698;2023-06-22T15:11:18;6.57;;;4.50;;
20865;SDS011;10593;48.398;10.698;2023-06-22T15:13:44;6.45;;;4.35;;
20865;SDS011;10593;48.398;10.698;2023-06-22T15:16:10;8.38;;;4.50;;
20865;SDS011;10593;48.398;10.698;2023-06-22T15:18:36;10.40;;;4.57;;
20865;SDS011;10593;48.398;10.698;2023-06-22T15:21:02;8.77;;;4.88;;
20865;SDS011;10593;48.398;10.698;2023-06-22T15:23:29;6.72;;;4.72;;
20865;SDS011;10593;48.398;10.698;2023-06-22T15:25:56;5.38;;;4.40;;
20865;SDS011;10593;48.398;10.698;2023-06-22T15:28:22;6.60;;;4.93;;
20865;SDS011;10593;48.398;10.698;2023-06-22T15:30:49;6.55;;;4.93;;
20865;SDS011;10593;48.398;10.698;2023-06-22T15:33:16;8.93;;;5.57;;
20865;SDS011;10593;48.398;10.698;2023-06-22T15:35:42;5.47;;;4.60;;
20865;SDS011;10593;48.398;10.698;2023-06-22T15:38:08;9.18;;;5.13;;
20865;SDS011;10593;48.398;10.698;2023-06-22T15:40:33;8.88;;;4.40;;
20865;SDS011;10593;48.398;10.698;2023-06-22T15:42:59;5.93;;;4.63;;
20865;SDS011;10593;48.398;10.698;2023-06-22T15:45:25;7.60;;;4.65;;
20865;SDS011;10593;48.398;10.698;2023-06-22T15:47:51;7.77;;;5.20;;
20865;SDS011;10593;48.398;10.698;2023-06-22T15:50:17;7.63;;;4.50;;
20865;SDS011;10593;48.398;10.698;2023-06-22T15:52:42;7.95;;;4.82;;
20865;SDS011;10593;48.398;10.698;2023-06-22T15:55:13;9.40;;;4.87;;
20865;SDS011;10593;48.398;10.698;2023-06-22T15:57:39;5.97;;;5.15;;